Bevent, Wisconsin
Current Conditions -  °F | °C
As of 7:45 PM on Wednesday 22 Oct 2014 (Local Time) from KCWA Reporting Station
Clear Clear  
Wind Chill: 41°   Ceiling: Unl
Heat Index: 45°   Visibility: 10mi
Dew Point: 36°   Wind: 7mph
Humidity: 71%   Direction: 130°SE
Pressure: 30.21"   Gusts: NA
Location:  44.8205°N, 89.392°W
Report Text: KCWA 230045Z 13006KT 10SM SKC 07/02 A3021
Loading
Personal Weather Stations






























Interactive Weather Map New forecast layout! Learn more

10-Day Weather Forecast

Advertisements
Track Severe Weather on mobile